Time;durP1;ratioP1;P1;durP2;ratioP2;P2;SDS_P1;SDS_P2;PMS_P1;PMS_P2;Temp;Humidity;BMP_temperature;BMP_pressure;BME280_temperature;BME280_humidity;BME280_pressure;Samples;Min_cycle;Max_cycle;Signal;HPM_P1;HPM_P2
2024/03/29 00:05:37;;;;;;;;;6.67;6.67;;;;;;;;6492375;31;9072;-56
2024/03/29 00:11:38;;;;;;;;;9.67;8.67;;;;;;;;6492540;31;9014;-56
2024/03/29 00:17:42;;;;;;;;;6.67;6.67;;;;;;;;6491314;39;8857;-57
2024/03/29 00:23:45;;;;;;;;;7.00;5.00;;;;;;;;6491242;31;9546;-57
2024/03/29 00:29:47;;;;;;;;;9.00;7.33;;;;;;;;6492833;39;8901;-57
2024/03/29 00:35:51;;;;;;;;;5.33;5.33;;;;;;;;6492447;31;8882;-55
2024/03/29 00:41:52;;;;;;;;;3.00;3.00;;;;;;;;6491922;39;8870;-56
2024/03/29 00:47:55;;;;;;;;;10.00;7.00;;;;;;;;6492709;39;9038;-57
2024/03/29 00:53:56;;;;;;;;;9.67;8.00;;;;;;;;6492805;39;9008;-57
2024/03/29 00:59:58;;;;;;;;;9.33;7.00;;;;;;;;6491914;31;8994;-53
2024/03/29 01:05:59;;;;;;;;;7.67;7.00;;;;;;;;6491109;46;9048;-55
2024/03/29 01:12:00;;;;;;;;;8.00;8.00;;;;;;;;6491537;39;8898;-57
2024/03/29 01:18:01;;;;;;;;;8.67;7.67;;;;;;;;6490532;31;8886;-56
2024/03/29 01:24:04;;;;;;;;;9.00;8.00;;;;;;;;6491721;39;8930;-55
2024/03/29 01:30:07;;;;;;;;;9.00;8.67;;;;;;;;6491559;46;8965;-56
2024/03/29 01:36:08;;;;;;;;;9.67;8.00;;;;;;;;6492302;39;8885;-55
2024/03/29 01:42:09;;;;;;;;;8.67;8.33;;;;;;;;6491363;39;8962;-56
2024/03/29 01:48:12;;;;;;;;;8.33;6.00;;;;;;;;6491862;31;8942;-58
2024/03/29 01:54:13;;;;;;;;;4.33;4.33;;;;;;;;6491229;46;8944;-55
2024/03/29 02:00:14;;;;;;;;;8.33;8.33;;;;;;;;6491023;39;8850;-56
2024/03/29 02:06:16;;;;;;;;;7.00;5.33;;;;;;;;6490667;39;9008;-54
2024/03/29 02:12:17;;;;;;;;;5.00;4.67;;;;;;;;6490630;46;9006;-58
2024/03/29 02:18:18;;;;;;;;;6.00;4.33;;;;;;;;6489647;31;8862;-56
2024/03/29 02:24:20;;;;;;;;;6.00;4.00;;;;;;;;6491398;39;9039;-55
2024/03/29 02:30:22;;;;;;;;;4.00;4.00;;;;;;;;6490671;47;8898;-56
2024/03/29 02:36:24;;;;;;;;;7.33;4.67;;;;;;;;6490499;39;8899;-56
2024/03/29 02:42:26;;;;;;;;;3.33;2.00;;;;;;;;6491105;39;8881;-56
2024/03/29 02:48:27;;;;;;;;;4.00;4.00;;;;;;;;6490646;39;8886;-54
2024/03/29 02:54:29;;;;;;;;;7.00;3.00;;;;;;;;6490713;47;8896;-59
2024/03/29 03:00:30;;;;;;;;;4.00;3.00;;;;;;;;6489919;47;8957;-56
2024/03/29 03:06:32;;;;;;;;;6.00;4.00;;;;;;;;6536763;36;8937;-57
2024/03/29 03:12:33;;;;;;;;;6.33;4.67;;;;;;;;6489699;47;8906;-56
2024/03/29 03:18:35;;;;;;;;;3.67;3.33;;;;;;;;6490566;39;8877;-58
2024/03/29 03:24:36;;;;;;;;;4.00;4.00;;;;;;;;6489835;47;8934;-56
2024/03/29 03:30:41;;;;;;;;;6.00;4.00;;;;;;;;6524544;36;8976;-57
2024/03/29 03:36:42;;;;;;;;;7.00;5.00;;;;;;;;6511483;31;9005;-57
2024/03/29 03:42:43;;;;;;;;;4.00;4.00;;;;;;;;6492821;39;8882;-55
2024/03/29 03:48:44;;;;;;;;;2.00;2.00;;;;;;;;6492483;39;9071;-56
2024/03/29 03:54:46;;;;;;;;;5.67;3.67;;;;;;;;6492300;39;8937;-57
2024/03/29 04:07:31;;;;;;;;;3.33;3.33;;;;;;;;6488129;39;9051;-54
2024/03/29 04:13:40;;;;;;;;;4.00;4.00;;;;;;;;6259898;36;10001577;-54
2024/03/29 04:19:41;;;;;;;;;4.33;3.67;;;;;;;;6021674;36;29008932;-51
2024/03/29 04:25:54;;;;;;;;;4.00;3.33;;;;;;;;6494058;39;8977;-54
2024/03/29 04:31:55;;;;;;;;;5.33;5.33;;;;;;;;6493971;39;9592;-55
2024/03/29 04:37:56;;;;;;;;;4.33;4.33;;;;;;;;6494437;39;8921;-56
2024/03/29 04:43:57;;;;;;;;;7.00;7.00;;;;;;;;6493068;31;9016;-54
2024/03/29 04:49:58;;;;;;;;;3.67;3.33;;;;;;;;6494507;39;8879;-52
2024/03/29 04:55:59;;;;;;;;;4.00;4.00;;;;;;;;6493960;39;8849;-54
2024/03/29 05:02:01;;;;;;;;;6.00;5.33;;;;;;;;6492361;46;8887;-57
2024/03/29 05:08:02;;;;;;;;;5.33;5.33;;;;;;;;6493591;46;8924;-55
2024/03/29 05:14:04;;;;;;;;;5.00;4.00;;;;;;;;6493761;39;9451;-54
2024/03/29 05:20:05;;;;;;;;;6.00;6.00;;;;;;;;6493167;46;8829;-53
2024/03/29 05:26:07;;;;;;;;;8.00;5.67;;;;;;;;6492966;46;9038;-56
2024/03/29 05:32:09;;;;;;;;;6.00;4.00;;;;;;;;6491947;39;8919;-55
2024/03/29 05:38:09;;;;;;;;;7.00;4.00;;;;;;;;6491770;46;9006;-56
2024/03/29 05:44:10;;;;;;;;;6.67;4.00;;;;;;;;6492570;31;8951;-53
2024/03/29 05:50:12;;;;;;;;;0.33;0.00;;;;;;;;6493298;39;8947;-55
2024/03/29 05:56:13;;;;;;;;;3.67;3.67;;;;;;;;6492942;39;8991;-55
2024/03/29 06:02:14;;;;;;;;;4.33;3.00;;;;;;;;6492215;31;8935;-54
2024/03/29 06:08:15;;;;;;;;;3.33;3.33;;;;;;;;6491142;39;8931;-56
2024/03/29 06:20:35;;;;;;;;;4.00;2.00;;;;;;;;6491209;46;8919;-54
2024/03/29 06:26:36;;;;;;;;;4.00;4.00;;;;;;;;6490762;39;9037;-57
2024/03/29 06:32:37;;;;;;;;;6.33;5.67;;;;;;;;6490818;39;8883;-57
2024/03/29 06:38:38;;;;;;;;;3.67;3.67;;;;;;;;6490348;39;8949;-52
2024/03/29 06:44:39;;;;;;;;;3.67;3.33;;;;;;;;6489812;39;8944;-54
2024/03/29 06:50:41;;;;;;;;;9.00;3.00;;;;;;;;6490148;47;8879;-53
2024/03/29 06:56:42;;;;;;;;;6.00;5.00;;;;;;;;6490093;39;8864;-55
2024/03/29 07:02:43;;;;;;;;;19.67;19.67;;;;;;;;6490319;39;9806;-55
2024/03/29 07:08:47;;;;;;;;;3.00;3.00;;;;;;;;6491278;46;9037;-55
2024/03/29 07:14:47;;;;;;;;;3.00;3.00;;;;;;;;6492978;31;8911;-53
2024/03/29 07:20:50;;;;;;;;;10.33;4.67;;;;;;;;6492171;46;8880;-51
2024/03/29 07:26:51;;;;;;;;;3.67;3.67;;;;;;;;6491376;31;9169;-54
2024/03/29 07:32:53;;;;;;;;;4.67;1.00;;;;;;;;6492049;46;8962;-53
2024/03/29 07:39:00;;;;;;;;;2.33;2.33;;;;;;;;6492632;39;8906;-57
2024/03/29 07:45:01;;;;;;;;;3.33;3.33;;;;;;;;6492207;39;8991;-59
2024/03/29 07:51:02;;;;;;;;;5.33;4.33;;;;;;;;6491731;39;8963;-56
2024/03/29 07:57:03;;;;;;;;;5.00;4.00;;;;;;;;6491695;39;8991;-55
2024/03/29 08:03:05;;;;;;;;;3.00;3.00;;;;;;;;6491106;46;8938;-52
2024/03/29 08:09:06;;;;;;;;;5.00;5.00;;;;;;;;6490911;46;8993;-53
2024/03/29 08:15:08;;;;;;;;;8.67;6.67;;;;;;;;6490895;39;8891;-54
2024/03/29 08:21:11;;;;;;;;;5.00;5.00;;;;;;;;6489618;31;8921;-56
2024/03/29 08:27:12;;;;;;;;;8.33;8.33;;;;;;;;6490485;31;9024;-54
2024/03/29 08:33:13;;;;;;;;;4.75;4.25;;;;;;;;6491709;31;8877;-54
2024/03/29 08:39:15;;;;;;;;;4.00;4.00;;;;;;;;6492152;31;8962;-59
2024/03/29 08:45:17;;;;;;;;;4.75;4.50;;;;;;;;6490497;39;8916;-54
2024/03/29 08:51:18;;;;;;;;;9.67;8.00;;;;;;;;6490665;31;9519;-53
2024/03/29 08:57:19;;;;;;;;;5.00;3.00;;;;;;;;6492026;31;8868;-56
2024/03/29 09:03:20;;;;;;;;;5.00;4.00;;;;;;;;6491667;39;9089;-56
2024/03/29 09:09:22;;;;;;;;;5.75;3.25;;;;;;;;6490360;46;8969;-56
2024/03/29 09:15:23;;;;;;;;;6.75;4.00;;;;;;;;6491223;39;8932;-54
2024/03/29 09:21:24;;;;;;;;;3.00;3.00;;;;;;;;6491080;31;8971;-56
2024/03/29 09:27:27;;;;;;;;;4.50;3.00;;;;;;;;6489135;46;8930;-57
2024/03/29 09:33:28;;;;;;;;;3.00;3.00;;;;;;;;6490800;39;9685;-55
2024/03/29 09:39:29;;;;;;;;;3.75;2.75;;;;;;;;6491634;31;8886;-56
2024/03/29 09:45:37;;;;;;;;;3.75;1.75;;;;;;;;6490161;46;8920;-55
2024/03/29 09:51:40;;;;;;;;;8.00;5.25;;;;;;;;6490958;46;8982;-56
2024/03/29 09:57:41;;;;;;;;;12.75;10.50;;;;;;;;6491448;31;8876;-53
2024/03/29 10:03:52;;;;;;;;;8.50;6.00;;;;;;;;6489213;39;8963;-57
2024/03/29 10:09:55;;;;;;;;;6.50;6.25;;;;;;;;6489482;39;9548;-57
2024/03/29 10:15:56;;;;;;;;;3.00;2.00;;;;;;;;6490786;46;8946;-59
2024/03/29 10:22:08;;;;;;;;;4.50;3.00;;;;;;;;6489220;46;8860;-57
2024/03/29 10:28:10;;;;;;;;;4.00;4.00;;;;;;;;6490806;39;8915;-57
2024/03/29 10:34:11;;;;;;;;;4.75;2.75;;;;;;;;6490472;39;9054;-57
2024/03/29 10:40:15;;;;;;;;;2.00;2.00;;;;;;;;6490697;31;8925;-56
2024/03/29 10:46:17;;;;;;;;;12.25;11.25;;;;;;;;6492995;39;9006;-57
2024/03/29 10:52:20;;;;;;;;;2.50;2.50;;;;;;;;6491614;46;8871;-57
2024/03/29 10:58:25;;;;;;;;;6.00;5.00;;;;;;;;6491328;39;8869;-56
2024/03/29 11:04:36;;;;;;;;;2.75;2.75;;;;;;;;6492511;39;9125;-56
2024/03/29 11:10:47;;;;;;;;;3.50;3.00;;;;;;;;6492472;39;9016;-55
2024/03/29 11:16:51;;;;;;;;;4.00;4.00;;;;;;;;6492227;39;8908;-59
2024/03/29 11:22:52;;;;;;;;;5.00;3.00;;;;;;;;6492070;39;9612;-53
2024/03/29 11:28:53;;;;;;;;;4.75;1.75;;;;;;;;6491572;31;9050;-58
2024/03/29 11:34:55;;;;;;;;;5.00;3.50;;;;;;;;6491492;39;8891;-58
2024/03/29 11:41:16;;;;;;;;;2.00;2.00;;;;;;;;6491802;39;8899;-57
2024/03/29 11:47:19;;;;;;;;;3.00;3.00;;;;;;;;6491501;46;8936;-57
2024/03/29 11:53:20;;;;;;;;;6.00;3.00;;;;;;;;6491782;31;9022;-57
2024/03/29 11:59:21;;;;;;;;;6.25;2.25;;;;;;;;6492312;39;9038;-57
2024/03/29 12:05:23;;;;;;;;;1.25;1.25;;;;;;;;6492248;31;8974;-57
2024/03/29 12:11:27;;;;;;;;;3.00;1.25;;;;;;;;6492378;39;8880;-59
2024/03/29 12:17:28;;;;;;;;;4.00;2.75;;;;;;;;6490723;46;9024;-57
2024/03/29 12:23:31;;;;;;;;;3.50;2.00;;;;;;;;6492678;31;8990;-57
2024/03/29 12:29:33;;;;;;;;;1.50;1.50;;;;;;;;6493298;31;9517;-58
2024/03/29 12:35:35;;;;;;;;;4.00;2.25;;;;;;;;6490516;39;8908;-56
2024/03/29 12:41:36;;;;;;;;;0.75;0.75;;;;;;;;6492509;31;8985;-57
2024/03/29 12:47:37;;;;;;;;;4.00;3.50;;;;;;;;6492254;31;8919;-55
2024/03/29 12:53:39;;;;;;;;;4.50;4.50;;;;;;;;6491830;46;8913;-57
2024/03/29 12:59:40;;;;;;;;;2.75;2.75;;;;;;;;6492229;39;9002;-56
2024/03/29 13:05:41;;;;;;;;;2.25;2.25;;;;;;;;6490372;39;8978;-57
2024/03/29 13:11:43;;;;;;;;;8.00;5.75;;;;;;;;6491400;31;9500;-56
2024/03/29 13:17:46;;;;;;;;;4.25;4.00;;;;;;;;6489872;39;8907;-58
2024/03/29 13:23:47;;;;;;;;;3.75;3.75;;;;;;;;6489708;46;9044;-56
2024/03/29 13:29:49;;;;;;;;;4.75;2.75;;;;;;;;6489309;46;8973;-56
2024/03/29 13:35:53;;;;;;;;;7.00;4.00;;;;;;;;6490481;39;9589;-58
2024/03/29 13:41:54;;;;;;;;;3.75;3.00;;;;;;;;6491187;39;8922;-56
2024/03/29 13:47:55;;;;;;;;;4.00;4.00;;;;;;;;6491029;31;9062;-54
2024/03/29 13:53:56;;;;;;;;;3.50;3.25;;;;;;;;6489574;39;8858;-54
2024/03/29 13:59:58;;;;;;;;;4.00;4.00;;;;;;;;6490259;46;8903;-55
2024/03/29 14:05:59;;;;;;;;;2.75;2.75;;;;;;;;6417515;36;5001534;-55
2024/03/29 14:12:02;;;;;;;;;3.00;3.00;;;;;;;;6490062;39;8883;-56
2024/03/29 14:18:05;;;;;;;;;4.25;3.75;;;;;;;;6398684;36;5001751;-55
2024/03/29 14:24:06;;;;;;;;;4.00;3.00;;;;;;;;6488011;47;9020;-55
2024/03/29 14:30:10;;;;;;;;;3.75;3.75;;;;;;;;6490270;39;9109;-53
2024/03/29 14:36:10;;;;;;;;;4.00;4.00;;;;;;;;6490127;39;8895;-57
2024/03/29 14:42:13;;;;;;;;;4.00;2.50;;;;;;;;6488519;39;8925;-54
2024/03/29 14:48:16;;;;;;;;;4.75;3.25;;;;;;;;6488736;31;8866;-54
2024/03/29 14:54:17;;;;;;;;;6.00;5.00;;;;;;;;6489418;47;8900;-54
2024/03/29 15:00:19;;;;;;;;;4.00;4.00;;;;;;;;6490882;39;8977;-58
2024/03/29 15:06:22;;;;;;;;;5.00;4.00;;;;;;;;6489952;39;8929;-53
2024/03/29 15:12:24;;;;;;;;;5.50;3.50;;;;;;;;6490360;31;8858;-56
2024/03/29 15:18:26;;;;;;;;;6.00;3.00;;;;;;;;6490265;39;8909;-57
2024/03/29 15:24:27;;;;;;;;;3.25;3.25;;;;;;;;6489616;39;8878;-54
2024/03/29 15:30:28;;;;;;;;;4.00;4.00;;;;;;;;6491584;46;8896;-57
2024/03/29 15:36:29;;;;;;;;;3.00;2.75;;;;;;;;6492474;31;8882;-56
2024/03/29 15:42:30;;;;;;;;;5.00;5.00;;;;;;;;6491134;46;8998;-55
2024/03/29 15:48:31;;;;;;;;;2.00;2.00;;;;;;;;6491274;39;8972;-57
2024/03/29 15:54:32;;;;;;;;;4.50;4.50;;;;;;;;6491089;39;8872;-55
2024/03/29 16:00:37;;;;;;;;;3.00;3.00;;;;;;;;6491039;39;8880;-54
2024/03/29 16:06:38;;;;;;;;;4.50;4.50;;;;;;;;6491188;46;8947;-55
2024/03/29 16:12:39;;;;;;;;;2.25;1.00;;;;;;;;6490802;46;8861;-56
2024/03/29 16:18:40;;;;;;;;;4.75;4.25;;;;;;;;6491469;46;9022;-58
2024/03/29 16:24:41;;;;;;;;;8.00;8.00;;;;;;;;6490756;39;8882;-60
2024/03/29 16:30:44;;;;;;;;;8.25;7.00;;;;;;;;6491474;39;9638;-56
2024/03/29 16:36:46;;;;;;;;;11.50;9.75;;;;;;;;6490571;39;8984;-53
2024/03/29 16:42:47;;;;;;;;;5.25;5.25;;;;;;;;6490352;46;9020;-55
2024/03/29 16:48:48;;;;;;;;;5.25;5.00;;;;;;;;6491410;39;9470;-55
2024/03/29 16:54:49;;;;;;;;;8.50;7.50;;;;;;;;6489229;39;8940;-55
2024/03/29 17:00:50;;;;;;;;;5.25;5.00;;;;;;;;6490923;46;8846;-54
2024/03/29 17:06:50;;;;;;;;;9.25;7.25;;;;;;;;6490961;39;9082;-56
2024/03/29 17:12:52;;;;;;;;;9.00;8.00;;;;;;;;6490591;39;8894;-55
2024/03/29 17:18:53;;;;;;;;;11.25;9.00;;;;;;;;6491324;39;8949;-54
2024/03/29 17:24:56;;;;;;;;;8.00;7.67;;;;;;;;6490347;46;8878;-55
2024/03/29 17:30:57;;;;;;;;;8.25;6.25;;;;;;;;6490485;46;8924;-56
2024/03/29 17:36:59;;;;;;;;;6.00;6.00;;;;;;;;6489912;39;8953;-55
2024/03/29 17:43:00;;;;;;;;;11.00;11.00;;;;;;;;6489802;46;8884;-54
2024/03/29 17:49:02;;;;;;;;;11.33;9.67;;;;;;;;6490860;39;8898;-57
2024/03/29 17:55:04;;;;;;;;;8.00;8.00;;;;;;;;6490243;46;8920;-55
2024/03/29 18:01:05;;;;;;;;;16.00;12.00;;;;;;;;6491416;39;8886;-54
2024/03/29 18:07:06;;;;;;;;;24.67;23.00;;;;;;;;6491517;39;9046;-55
2024/03/29 18:13:08;;;;;;;;;18.00;15.00;;;;;;;;6490342;31;8933;-55
2024/03/29 18:19:09;;;;;;;;;15.33;12.00;;;;;;;;6490250;39;8916;-56
2024/03/29 18:25:10;;;;;;;;;16.00;14.00;;;;;;;;6490306;39;8866;-51
2024/03/29 18:31:12;;;;;;;;;15.00;11.67;;;;;;;;6490075;47;8956;-53
2024/03/29 18:37:14;;;;;;;;;11.33;11.33;;;;;;;;6489763;46;8972;-52
2024/03/29 18:43:15;;;;;;;;;14.00;13.00;;;;;;;;6490369;39;8937;-56
2024/03/29 18:49:17;;;;;;;;;10.33;6.67;;;;;;;;6490597;39;8932;-53
2024/03/29 18:55:20;;;;;;;;;11.67;11.33;;;;;;;;6489770;47;8877;-55
2024/03/29 19:01:22;;;;;;;;;14.33;12.67;;;;;;;;6490896;39;8902;-57
2024/03/29 19:07:23;;;;;;;;;24.00;22.67;;;;;;;;6492594;39;8917;-55
2024/03/29 19:13:24;;;;;;;;;17.33;14.00;;;;;;;;6491257;31;8886;-52
2024/03/29 19:19:25;;;;;;;;;14.33;13.33;;;;;;;;6492668;39;8955;-55
2024/03/29 19:25:28;;;;;;;;;13.33;13.33;;;;;;;;6492325;31;8996;-52
2024/03/29 19:31:30;;;;;;;;;24.00;22.67;;;;;;;;6491603;39;9019;-55
2024/03/29 19:37:49;;;;;;;;;30.00;26.00;;;;;;;;4718240;36;10011714;-53
2024/03/29 19:44:07;;;;;;;;;35.33;31.33;;;;;;;;6498554;38;266462;-53
2024/03/29 19:50:09;;;;;;;;;35.33;31.00;;;;;;;;6502797;31;8993;-52
2024/03/29 19:56:11;;;;;;;;;31.67;30.67;;;;;;;;6502788;46;8935;-55
2024/03/29 20:02:13;;;;;;;;;35.67;31.33;;;;;;;;6503205;38;8943;-53
2024/03/29 20:08:15;;;;;;;;;28.00;23.33;;;;;;;;6502908;38;8992;-54
2024/03/29 20:14:16;;;;;;;;;42.67;36.00;;;;;;;;6502860;46;9010;-54
2024/03/29 20:20:17;;;;;;;;;33.00;27.67;;;;;;;;6502627;38;8976;-54
2024/03/29 20:26:20;;;;;;;;;19.67;18.00;;;;;;;;6502664;46;8887;-56
2024/03/29 20:32:21;;;;;;;;;14.67;14.67;;;;;;;;6501578;31;8906;-52
2024/03/29 20:38:22;;;;;;;;;13.33;13.33;;;;;;;;6500957;38;8947;-53
2024/03/29 20:44:22;;;;;;;;;17.33;15.00;;;;;;;;6502418;46;8890;-53
2024/03/29 20:50:24;;;;;;;;;17.00;17.00;;;;;;;;6500055;46;8891;-55
2024/03/29 20:56:25;;;;;;;;;18.00;16.00;;;;;;;;6493095;46;8866;-55
2024/03/29 21:08:48;;;;;;;;;14.00;13.00;;;;;;;;6492088;39;8944;-51
2024/03/29 21:14:49;;;;;;;;;15.67;15.67;;;;;;;;6494045;39;8908;-51
2024/03/29 21:20:51;;;;;;;;;16.33;14.33;;;;;;;;6493342;31;8933;-54
2024/03/29 21:26:52;;;;;;;;;13.00;12.67;;;;;;;;6494657;31;8883;-56
2024/03/29 21:32:54;;;;;;;;;18.00;13.33;;;;;;;;4553077;31;22001909;-53
2024/03/29 21:38:54;;;;;;;;;19.67;18.00;;;;;;;;6492581;39;9060;-54
2024/03/29 21:44:55;;;;;;;;;16.33;14.33;;;;;;;;6492571;39;9785;-54
2024/03/29 21:50:56;;;;;;;;;17.00;17.00;;;;;;;;6491543;39;8920;-54
2024/03/29 21:56:57;;;;;;;;;16.00;14.67;;;;;;;;6491734;39;9011;-53
2024/03/29 22:02:58;;;;;;;;;16.00;14.33;;;;;;;;6489569;46;9021;-51
2024/03/29 22:08:59;;;;;;;;;16.00;14.67;;;;;;;;6490904;46;8982;-53
2024/03/29 22:15:01;;;;;;;;;13.67;13.33;;;;;;;;6491409;46;8970;-53
2024/03/29 22:21:02;;;;;;;;;16.67;15.00;;;;;;;;6490986;46;9034;-52
2024/03/29 22:27:03;;;;;;;;;11.00;9.67;;;;;;;;6492211;39;8872;-56
2024/03/29 22:33:04;;;;;;;;;17.00;16.00;;;;;;;;6491868;39;8891;-56
2024/03/29 22:39:05;;;;;;;;;13.67;12.00;;;;;;;;6490889;39;8943;-52
2024/03/29 22:45:06;;;;;;;;;17.00;13.33;;;;;;;;6491234;39;8938;-52
2024/03/29 22:51:07;;;;;;;;;11.00;11.00;;;;;;;;6490923;39;8899;-50
2024/03/29 22:57:08;;;;;;;;;10.67;10.00;;;;;;;;6490279;39;8938;-56
2024/03/29 23:03:09;;;;;;;;;14.67;12.00;;;;;;;;6490616;39;9078;-55
2024/03/29 23:09:10;;;;;;;;;10.33;10.33;;;;;;;;6490526;39;8880;-54
2024/03/29 23:15:15;;;;;;;;;9.67;9.67;;;;;;;;6491429;39;9617;-54
2024/03/29 23:21:18;;;;;;;;;12.33;11.00;;;;;;;;6490033;46;8919;-54
2024/03/29 23:27:19;;;;;;;;;10.67;9.67;;;;;;;;6491170;39;9003;-54
2024/03/29 23:33:21;;;;;;;;;10.00;9.00;;;;;;;;6491278;39;8892;-53
2024/03/29 23:39:22;;;;;;;;;11.00;10.00;;;;;;;;6489578;39;8955;-55
2024/03/29 23:45:23;;;;;;;;;10.67;9.33;;;;;;;;6490856;39;8872;-54
2024/03/29 23:51:25;;;;;;;;;11.00;9.67;;;;;;;;6489626;39;9006;-54
2024/03/29 23:57:27;;;;;;;;;11.67;11.67;;;;;;;;6489481;39;8848;-49
